sensor_id;sensor_type;location;lat;lon;timestamp;P1;durP1;ratioP1;P2;durP2;ratioP2
27539;SDS011;15906;52.046;4.724;2023-01-29T00:01:03;25.67;;;15.83;;
27539;SDS011;15906;52.046;4.724;2023-01-29T00:03:29;24.73;;;15.67;;
27539;SDS011;15906;52.046;4.724;2023-01-29T00:05:55;27.13;;;15.70;;
27539;SDS011;15906;52.046;4.724;2023-01-29T00:08:21;25.90;;;15.70;;
27539;SDS011;15906;52.046;4.724;2023-01-29T00:10:46;28.70;;;16.53;;
27539;SDS011;15906;52.046;4.724;2023-01-29T00:13:12;28.67;;;15.87;;
27539;SDS011;15906;52.046;4.724;2023-01-29T00:15:37;27.40;;;16.63;;
27539;SDS011;15906;52.046;4.724;2023-01-29T00:18:03;26.50;;;15.93;;
27539;SDS011;15906;52.046;4.724;2023-01-29T00:20:29;27.83;;;15.10;;
27539;SDS011;15906;52.046;4.724;2023-01-29T00:22:55;35.40;;;17.73;;
27539;SDS011;15906;52.046;4.724;2023-01-29T00:25:20;29.73;;;15.60;;
27539;SDS011;15906;52.046;4.724;2023-01-29T00:27:46;26.97;;;15.37;;
27539;SDS011;15906;52.046;4.724;2023-01-29T00:30:11;27.47;;;15.17;;
27539;SDS011;15906;52.046;4.724;2023-01-29T00:32:38;24.73;;;14.50;;
27539;SDS011;15906;52.046;4.724;2023-01-29T00:35:04;28.40;;;15.47;;
27539;SDS011;15906;52.046;4.724;2023-01-29T00:37:31;27.27;;;16.20;;
27539;SDS011;15906;52.046;4.724;2023-01-29T00:39:56;25.30;;;15.23;;
27539;SDS011;15906;52.046;4.724;2023-01-29T00:42:22;25.37;;;14.03;;
27539;SDS011;15906;52.046;4.724;2023-01-29T00:45:07;25.17;;;14.07;;
27539;SDS011;15906;52.046;4.724;2023-01-29T00:47:33;22.70;;;14.43;;
27539;SDS011;15906;52.046;4.724;2023-01-29T00:49:59;25.80;;;15.17;;
27539;SDS011;15906;52.046;4.724;2023-01-29T00:52:26;25.97;;;15.27;;
27539;SDS011;15906;52.046;4.724;2023-01-29T00:54:53;25.40;;;14.47;;
27539;SDS011;15906;52.046;4.724;2023-01-29T00:57:20;25.17;;;14.67;;
27539;SDS011;15906;52.046;4.724;2023-01-29T00:59:46;20.27;;;14.03;;
27539;SDS011;15906;52.046;4.724;2023-01-29T01:02:12;27.93;;;15.53;;
27539;SDS011;15906;52.046;4.724;2023-01-29T01:05:14;26.13;;;15.20;;
27539;SDS011;15906;52.046;4.724;2023-01-29T01:07:47;24.73;;;14.30;;
27539;SDS011;15906;52.046;4.724;2023-01-29T01:10:19;24.57;;;14.33;;
27539;SDS011;15906;52.046;4.724;2023-01-29T01:12:48;25.93;;;16.10;;
27539;SDS011;15906;52.046;4.724;2023-01-29T01:15:24;21.53;;;13.80;;
27539;SDS011;15906;52.046;4.724;2023-01-29T01:17:56;26.93;;;15.90;;
27539;SDS011;15906;52.046;4.724;2023-01-29T01:20:24;24.80;;;14.83;;
27539;SDS011;15906;52.046;4.724;2023-01-29T01:22:55;25.77;;;15.87;;
27539;SDS011;15906;52.046;4.724;2023-01-29T01:25:21;22.63;;;14.80;;
27539;SDS011;15906;52.046;4.724;2023-01-29T01:27:50;27.93;;;14.97;;
27539;SDS011;15906;52.046;4.724;2023-01-29T01:30:19;24.40;;;14.83;;
27539;SDS011;15906;52.046;4.724;2023-01-29T01:32:45;26.03;;;14.63;;
27539;SDS011;15906;52.046;4.724;2023-01-29T01:35:11;24.63;;;15.27;;
27539;SDS011;15906;52.046;4.724;2023-01-29T01:37:38;22.77;;;14.83;;
27539;SDS011;15906;52.046;4.724;2023-01-29T01:40:06;25.20;;;14.73;;
27539;SDS011;15906;52.046;4.724;2023-01-29T01:42:36;21.80;;;14.63;;
27539;SDS011;15906;52.046;4.724;2023-01-29T01:45:03;25.53;;;14.67;;
27539;SDS011;15906;52.046;4.724;2023-01-29T01:47:39;26.77;;;15.30;;
27539;SDS011;15906;52.046;4.724;2023-01-29T01:50:10;25.13;;;15.90;;
27539;SDS011;15906;52.046;4.724;2023-01-29T01:52:44;25.50;;;15.60;;
27539;SDS011;15906;52.046;4.724;2023-01-29T01:55:13;25.33;;;15.17;;
27539;SDS011;15906;52.046;4.724;2023-01-29T01:57:43;24.03;;;15.77;;
27539;SDS011;15906;52.046;4.724;2023-01-29T02:00:14;23.40;;;15.77;;
27539;SDS011;15906;52.046;4.724;2023-01-29T02:02:42;24.63;;;15.83;;
27539;SDS011;15906;52.046;4.724;2023-01-29T02:05:29;26.07;;;16.17;;
27539;SDS011;15906;52.046;4.724;2023-01-29T02:08:17;27.17;;;16.30;;
27539;SDS011;15906;52.046;4.724;2023-01-29T02:11:07;24.13;;;15.60;;
27539;SDS011;15906;52.046;4.724;2023-01-29T02:13:33;30.27;;;17.23;;
27539;SDS011;15906;52.046;4.724;2023-01-29T02:15:59;25.47;;;15.83;;
27539;SDS011;15906;52.046;4.724;2023-01-29T02:18:24;29.80;;;16.93;;
27539;SDS011;15906;52.046;4.724;2023-01-29T02:21:01;27.23;;;16.47;;
27539;SDS011;15906;52.046;4.724;2023-01-29T02:26:57;25.17;;;15.60;;
27539;SDS011;15906;52.046;4.724;2023-01-29T02:29:44;25.67;;;16.77;;
27539;SDS011;15906;52.046;4.724;2023-01-29T02:32:33;29.03;;;16.87;;
27539;SDS011;15906;52.046;4.724;2023-01-29T02:35:14;27.77;;;16.50;;
27539;SDS011;15906;52.046;4.724;2023-01-29T02:40:44;26.47;;;15.90;;
27539;SDS011;15906;52.046;4.724;2023-01-29T02:49:11;28.70;;;16.83;;
27539;SDS011;15906;52.046;4.724;2023-01-29T02:54:32;30.73;;;16.83;;
27539;SDS011;15906;52.046;4.724;2023-01-29T02:57:10;26.53;;;17.03;;
27539;SDS011;15906;52.046;4.724;2023-01-29T02:59:54;30.90;;;17.20;;
27539;SDS011;15906;52.046;4.724;2023-01-29T03:02:34;27.93;;;17.10;;
27539;SDS011;15906;52.046;4.724;2023-01-29T03:05:10;30.23;;;18.47;;
27539;SDS011;15906;52.046;4.724;2023-01-29T03:07:47;28.87;;;17.27;;
27539;SDS011;15906;52.046;4.724;2023-01-29T03:10:20;29.90;;;17.93;;
27539;SDS011;15906;52.046;4.724;2023-01-29T03:12:50;30.07;;;18.13;;
27539;SDS011;15906;52.046;4.724;2023-01-29T03:15:31;28.80;;;18.33;;
27539;SDS011;15906;52.046;4.724;2023-01-29T03:18:08;28.87;;;19.77;;
27539;SDS011;15906;52.046;4.724;2023-01-29T03:20:39;31.63;;;17.37;;
27539;SDS011;15906;52.046;4.724;2023-01-29T03:23:33;34.23;;;19.47;;
27539;SDS011;15906;52.046;4.724;2023-01-29T03:26:18;31.30;;;18.33;;
27539;SDS011;15906;52.046;4.724;2023-01-29T03:29:05;29.77;;;18.87;;
27539;SDS011;15906;52.046;4.724;2023-01-29T03:31:51;30.93;;;18.53;;
27539;SDS011;15906;52.046;4.724;2023-01-29T03:34:39;30.60;;;18.90;;
27539;SDS011;15906;52.046;4.724;2023-01-29T03:37:12;32.30;;;20.57;;
27539;SDS011;15906;52.046;4.724;2023-01-29T03:39:59;32.67;;;19.07;;
27539;SDS011;15906;52.046;4.724;2023-01-29T03:42:34;34.80;;;20.43;;
27539;SDS011;15906;52.046;4.724;2023-01-29T03:47:45;40.87;;;20.27;;
27539;SDS011;15906;52.046;4.724;2023-01-29T03:50:24;33.73;;;21.47;;
27539;SDS011;15906;52.046;4.724;2023-01-29T03:52:57;32.50;;;19.70;;
27539;SDS011;15906;52.046;4.724;2023-01-29T04:00:52;32.40;;;19.90;;
27539;SDS011;15906;52.046;4.724;2023-01-29T04:03:25;35.73;;;20.77;;
27539;SDS011;15906;52.046;4.724;2023-01-29T04:06:09;35.10;;;20.60;;
27539;SDS011;15906;52.046;4.724;2023-01-29T04:11:40;33.70;;;20.27;;
27539;SDS011;15906;52.046;4.724;2023-01-29T04:14:13;34.57;;;20.07;;
27539;SDS011;15906;52.046;4.724;2023-01-29T04:16:41;37.23;;;20.70;;
27539;SDS011;15906;52.046;4.724;2023-01-29T04:19:12;37.93;;;20.67;;
27539;SDS011;15906;52.046;4.724;2023-01-29T04:21:38;32.50;;;19.70;;
27539;SDS011;15906;52.046;4.724;2023-01-29T04:24:05;37.83;;;20.50;;
27539;SDS011;15906;52.046;4.724;2023-01-29T04:26:36;30.03;;;19.37;;
27539;SDS011;15906;52.046;4.724;2023-01-29T04:36:55;31.00;;;20.20;;
27539;SDS011;15906;52.046;4.724;2023-01-29T04:39:48;29.70;;;18.63;;
27539;SDS011;15906;52.046;4.724;2023-01-29T04:45:15;30.13;;;18.63;;
27539;SDS011;15906;52.046;4.724;2023-01-29T04:47:50;32.87;;;19.33;;
27539;SDS011;15906;52.046;4.724;2023-01-29T04:50:39;32.67;;;20.57;;
27539;SDS011;15906;52.046;4.724;2023-01-29T04:53:28;33.70;;;19.57;;
27539;SDS011;15906;52.046;4.724;2023-01-29T04:58:42;30.07;;;18.23;;
27539;SDS011;15906;52.046;4.724;2023-01-29T05:01:13;30.07;;;19.17;;
27539;SDS011;15906;52.046;4.724;2023-01-29T05:03:42;29.33;;;18.80;;
27539;SDS011;15906;52.046;4.724;2023-01-29T05:06:10;29.00;;;18.83;;
27539;SDS011;15906;52.046;4.724;2023-01-29T05:08:37;33.40;;;20.17;;
27539;SDS011;15906;52.046;4.724;2023-01-29T05:11:03;29.87;;;18.90;;
27539;SDS011;15906;52.046;4.724;2023-01-29T05:13:30;31.93;;;19.77;;
27539;SDS011;15906;52.046;4.724;2023-01-29T05:16:03;31.07;;;19.37;;
27539;SDS011;15906;52.046;4.724;2023-01-29T05:18:31;31.73;;;19.63;;
27539;SDS011;15906;52.046;4.724;2023-01-29T05:20:58;31.63;;;20.07;;
27539;SDS011;15906;52.046;4.724;2023-01-29T05:23:28;32.20;;;19.10;;
27539;SDS011;15906;52.046;4.724;2023-01-29T05:25:54;30.87;;;19.20;;
27539;SDS011;15906;52.046;4.724;2023-01-29T05:28:21;28.83;;;18.33;;
27539;SDS011;15906;52.046;4.724;2023-01-29T05:30:47;33.33;;;19.17;;
27539;SDS011;15906;52.046;4.724;2023-01-29T05:33:16;32.10;;;20.13;;
27539;SDS011;15906;52.046;4.724;2023-01-29T05:35:43;34.80;;;19.87;;
27539;SDS011;15906;52.046;4.724;2023-01-29T05:38:09;28.47;;;18.03;;
27539;SDS011;15906;52.046;4.724;2023-01-29T05:40:36;31.10;;;18.70;;
27539;SDS011;15906;52.046;4.724;2023-01-29T05:43:01;34.03;;;20.63;;
27539;SDS011;15906;52.046;4.724;2023-01-29T05:45:28;32.00;;;20.27;;
27539;SDS011;15906;52.046;4.724;2023-01-29T05:47:55;33.60;;;20.17;;
27539;SDS011;15906;52.046;4.724;2023-01-29T05:50:24;32.57;;;18.90;;
27539;SDS011;15906;52.046;4.724;2023-01-29T05:52:57;30.33;;;19.37;;
27539;SDS011;15906;52.046;4.724;2023-01-29T05:55:24;34.17;;;19.73;;
27539;SDS011;15906;52.046;4.724;2023-01-29T05:57:50;33.50;;;19.90;;
27539;SDS011;15906;52.046;4.724;2023-01-29T06:00:16;30.10;;;18.30;;
27539;SDS011;15906;52.046;4.724;2023-01-29T06:02:42;30.90;;;19.40;;
27539;SDS011;15906;52.046;4.724;2023-01-29T06:05:08;34.27;;;19.47;;
27539;SDS011;15906;52.046;4.724;2023-01-29T06:07:33;32.80;;;18.67;;
27539;SDS011;15906;52.046;4.724;2023-01-29T06:10:00;30.63;;;19.33;;
27539;SDS011;15906;52.046;4.724;2023-01-29T06:12:26;32.77;;;19.47;;
27539;SDS011;15906;52.046;4.724;2023-01-29T06:14:51;32.17;;;19.30;;
27539;SDS011;15906;52.046;4.724;2023-01-29T06:17:17;31.37;;;19.43;;
27539;SDS011;15906;52.046;4.724;2023-01-29T06:19:42;31.60;;;18.70;;
27539;SDS011;15906;52.046;4.724;2023-01-29T06:22:08;33.37;;;19.97;;
27539;SDS011;15906;52.046;4.724;2023-01-29T06:24:33;31.37;;;18.77;;
27539;SDS011;15906;52.046;4.724;2023-01-29T06:26:59;30.97;;;19.03;;
27539;SDS011;15906;52.046;4.724;2023-01-29T06:29:25;34.03;;;20.00;;
27539;SDS011;15906;52.046;4.724;2023-01-29T06:31:50;33.53;;;19.70;;
27539;SDS011;15906;52.046;4.724;2023-01-29T06:34:16;29.67;;;19.27;;
27539;SDS011;15906;52.046;4.724;2023-01-29T06:36:41;33.43;;;19.50;;
27539;SDS011;15906;52.046;4.724;2023-01-29T06:39:07;33.47;;;19.60;;
27539;SDS011;15906;52.046;4.724;2023-01-29T06:41:33;33.10;;;19.83;;
27539;SDS011;15906;52.046;4.724;2023-01-29T06:43:58;29.53;;;18.10;;
27539;SDS011;15906;52.046;4.724;2023-01-29T06:46:24;31.63;;;19.87;;
27539;SDS011;15906;52.046;4.724;2023-01-29T06:48:50;30.30;;;19.50;;
27539;SDS011;15906;52.046;4.724;2023-01-29T06:51:15;28.37;;;17.83;;
27539;SDS011;15906;52.046;4.724;2023-01-29T06:53:41;31.50;;;19.17;;
27539;SDS011;15906;52.046;4.724;2023-01-29T06:56:07;31.47;;;19.67;;
27539;SDS011;15906;52.046;4.724;2023-01-29T06:58:34;29.10;;;17.70;;
27539;SDS011;15906;52.046;4.724;2023-01-29T07:01:05;32.07;;;19.73;;
27539;SDS011;15906;52.046;4.724;2023-01-29T07:03:31;31.27;;;20.70;;
27539;SDS011;15906;52.046;4.724;2023-01-29T07:05:57;32.17;;;20.10;;
27539;SDS011;15906;52.046;4.724;2023-01-29T07:08:23;28.93;;;18.90;;
27539;SDS011;15906;52.046;4.724;2023-01-29T07:10:48;36.40;;;20.83;;
27539;SDS011;15906;52.046;4.724;2023-01-29T07:13:14;33.67;;;20.30;;
27539;SDS011;15906;52.046;4.724;2023-01-29T07:15:40;31.27;;;20.30;;
27539;SDS011;15906;52.046;4.724;2023-01-29T07:18:06;30.77;;;18.17;;
27539;SDS011;15906;52.046;4.724;2023-01-29T07:20:38;31.83;;;19.27;;
27539;SDS011;15906;52.046;4.724;2023-01-29T07:23:06;36.07;;;21.40;;
27539;SDS011;15906;52.046;4.724;2023-01-29T07:25:34;33.47;;;20.73;;
27539;SDS011;15906;52.046;4.724;2023-01-29T07:28:00;30.73;;;19.97;;
27539;SDS011;15906;52.046;4.724;2023-01-29T07:30:26;34.33;;;20.27;;
27539;SDS011;15906;52.046;4.724;2023-01-29T07:32:51;31.73;;;20.17;;
27539;SDS011;15906;52.046;4.724;2023-01-29T07:35:17;32.13;;;20.93;;
27539;SDS011;15906;52.046;4.724;2023-01-29T07:37:42;31.10;;;20.77;;
27539;SDS011;15906;52.046;4.724;2023-01-29T07:40:08;33.37;;;19.27;;
27539;SDS011;15906;52.046;4.724;2023-01-29T07:42:36;32.93;;;19.97;;
27539;SDS011;15906;52.046;4.724;2023-01-29T07:45:04;30.50;;;19.17;;
27539;SDS011;15906;52.046;4.724;2023-01-29T07:47:30;29.10;;;20.13;;
27539;SDS011;15906;52.046;4.724;2023-01-29T07:49:55;30.70;;;19.57;;
27539;SDS011;15906;52.046;4.724;2023-01-29T07:52:21;32.63;;;19.93;;
27539;SDS011;15906;52.046;4.724;2023-01-29T07:54:46;30.90;;;19.23;;
27539;SDS011;15906;52.046;4.724;2023-01-29T07:57:12;34.13;;;20.13;;
27539;SDS011;15906;52.046;4.724;2023-01-29T07:59:37;29.97;;;19.77;;
27539;SDS011;15906;52.046;4.724;2023-01-29T08:02:03;31.77;;;20.33;;
27539;SDS011;15906;52.046;4.724;2023-01-29T08:04:28;29.70;;;19.97;;
27539;SDS011;15906;52.046;4.724;2023-01-29T08:06:54;34.00;;;20.17;;
27539;SDS011;15906;52.046;4.724;2023-01-29T08:09:19;36.07;;;21.27;;
27539;SDS011;15906;52.046;4.724;2023-01-29T08:11:46;32.37;;;21.10;;
27539;SDS011;15906;52.046;4.724;2023-01-29T08:14:11;33.70;;;20.97;;
27539;SDS011;15906;52.046;4.724;2023-01-29T08:16:37;32.53;;;20.90;;
27539;SDS011;15906;52.046;4.724;2023-01-29T08:19:02;30.60;;;20.77;;
27539;SDS011;15906;52.046;4.724;2023-01-29T08:21:28;35.80;;;20.53;;
27539;SDS011;15906;52.046;4.724;2023-01-29T08:23:53;30.77;;;20.83;;
27539;SDS011;15906;52.046;4.724;2023-01-29T08:26:19;34.50;;;21.93;;
27539;SDS011;15906;52.046;4.724;2023-01-29T08:28:44;34.63;;;20.70;;
27539;SDS011;15906;52.046;4.724;2023-01-29T08:31:14;33.47;;;20.50;;
27539;SDS011;15906;52.046;4.724;2023-01-29T08:33:40;37.37;;;22.97;;
27539;SDS011;15906;52.046;4.724;2023-01-29T08:36:06;31.77;;;20.43;;
27539;SDS011;15906;52.046;4.724;2023-01-29T08:38:32;33.03;;;20.67;;
27539;SDS011;15906;52.046;4.724;2023-01-29T08:40:58;30.83;;;20.90;;
27539;SDS011;15906;52.046;4.724;2023-01-29T08:43:23;36.37;;;20.70;;
27539;SDS011;15906;52.046;4.724;2023-01-29T08:45:49;36.37;;;22.10;;
27539;SDS011;15906;52.046;4.724;2023-01-29T08:48:15;34.77;;;21.80;;
27539;SDS011;15906;52.046;4.724;2023-01-29T08:50:40;29.63;;;18.90;;
27539;SDS011;15906;52.046;4.724;2023-01-29T08:53:06;33.87;;;22.00;;
27539;SDS011;15906;52.046;4.724;2023-01-29T08:55:34;34.47;;;20.63;;
27539;SDS011;15906;52.046;4.724;2023-01-29T08:58:02;33.50;;;20.83;;
27539;SDS011;15906;52.046;4.724;2023-01-29T09:00:29;36.37;;;21.57;;
27539;SDS011;15906;52.046;4.724;2023-01-29T09:02:55;32.60;;;21.10;;
27539;SDS011;15906;52.046;4.724;2023-01-29T09:05:23;36.00;;;21.93;;
27539;SDS011;15906;52.046;4.724;2023-01-29T09:07:49;35.20;;;21.73;;
27539;SDS011;15906;52.046;4.724;2023-01-29T09:10:15;36.77;;;22.07;;
27539;SDS011;15906;52.046;4.724;2023-01-29T09:12:40;32.33;;;22.00;;
27539;SDS011;15906;52.046;4.724;2023-01-29T09:15:06;38.60;;;22.97;;
27539;SDS011;15906;52.046;4.724;2023-01-29T09:17:32;35.43;;;21.93;;
27539;SDS011;15906;52.046;4.724;2023-01-29T09:19:58;35.47;;;22.17;;
27539;SDS011;15906;52.046;4.724;2023-01-29T09:22:23;34.33;;;22.50;;
27539;SDS011;15906;52.046;4.724;2023-01-29T09:24:49;36.13;;;22.93;;
27539;SDS011;15906;52.046;4.724;2023-01-29T09:27:14;34.07;;;22.03;;
27539;SDS011;15906;52.046;4.724;2023-01-29T09:29:40;35.33;;;20.23;;
27539;SDS011;15906;52.046;4.724;2023-01-29T09:32:05;32.33;;;21.50;;
27539;SDS011;15906;52.046;4.724;2023-01-29T09:34:31;37.37;;;22.87;;
27539;SDS011;15906;52.046;4.724;2023-01-29T09:36:56;35.60;;;22.53;;
27539;SDS011;15906;52.046;4.724;2023-01-29T09:39:22;33.93;;;21.43;;
27539;SDS011;15906;52.046;4.724;2023-01-29T09:42:07;37.93;;;22.30;;
27539;SDS011;15906;52.046;4.724;2023-01-29T09:45:08;32.53;;;21.33;;
27539;SDS011;15906;52.046;4.724;2023-01-29T09:47:39;37.77;;;21.40;;
27539;SDS011;15906;52.046;4.724;2023-01-29T09:50:11;32.73;;;21.30;;
27539;SDS011;15906;52.046;4.724;2023-01-29T09:52:51;34.23;;;22.00;;
27539;SDS011;15906;52.046;4.724;2023-01-29T09:55:32;36.20;;;23.53;;
27539;SDS011;15906;52.046;4.724;2023-01-29T10:06:24;38.47;;;24.17;;
27539;SDS011;15906;52.046;4.724;2023-01-29T10:09:11;36.23;;;23.53;;
27539;SDS011;15906;52.046;4.724;2023-01-29T10:15:02;41.60;;;24.07;;
27539;SDS011;15906;52.046;4.724;2023-01-29T10:20:52;37.77;;;23.40;;
27539;SDS011;15906;52.046;4.724;2023-01-29T10:23:35;33.70;;;21.27;;
27539;SDS011;15906;52.046;4.724;2023-01-29T10:26:05;41.93;;;24.43;;
27539;SDS011;15906;52.046;4.724;2023-01-29T10:28:40;39.70;;;22.50;;
27539;SDS011;15906;52.046;4.724;2023-01-29T10:31:27;41.27;;;23.60;;
27539;SDS011;15906;52.046;4.724;2023-01-29T10:34:03;40.40;;;24.67;;
27539;SDS011;15906;52.046;4.724;2023-01-29T10:39:15;38.67;;;23.60;;
27539;SDS011;15906;52.046;4.724;2023-01-29T10:48:23;39.43;;;24.23;;
27539;SDS011;15906;52.046;4.724;2023-01-29T10:50:27;39.40;;;24.33;;
27539;SDS011;15906;52.046;4.724;2023-01-29T10:53:28;41.77;;;24.97;;
27539;SDS011;15906;52.046;4.724;2023-01-29T10:56:18;43.43;;;24.73;;
27539;SDS011;15906;52.046;4.724;2023-01-29T10:59:25;39.33;;;24.87;;
27539;SDS011;15906;52.046;4.724;2023-01-29T11:01:58;41.17;;;25.07;;
27539;SDS011;15906;52.046;4.724;2023-01-29T11:04:25;38.97;;;24.20;;
27539;SDS011;15906;52.046;4.724;2023-01-29T11:06:52;39.40;;;23.93;;
27539;SDS011;15906;52.046;4.724;2023-01-29T11:09:29;41.03;;;24.20;;
27539;SDS011;15906;52.046;4.724;2023-01-29T11:12:00;42.03;;;25.97;;
27539;SDS011;15906;52.046;4.724;2023-01-29T11:14:41;42.67;;;25.27;;
27539;SDS011;15906;52.046;4.724;2023-01-29T11:17:14;42.40;;;26.10;;
27539;SDS011;15906;52.046;4.724;2023-01-29T11:19:44;42.53;;;25.87;;
27539;SDS011;15906;52.046;4.724;2023-01-29T11:22:12;40.80;;;25.70;;
27539;SDS011;15906;52.046;4.724;2023-01-29T11:24:40;40.20;;;24.60;;
27539;SDS011;15906;52.046;4.724;2023-01-29T11:27:13;43.83;;;27.30;;
27539;SDS011;15906;52.046;4.724;2023-01-29T11:29:51;40.67;;;26.40;;
27539;SDS011;15906;52.046;4.724;2023-01-29T11:37:20;42.10;;;26.07;;
27539;SDS011;15906;52.046;4.724;2023-01-29T11:39:46;42.60;;;27.00;;
27539;SDS011;15906;52.046;4.724;2023-01-29T11:42:21;42.40;;;25.47;;
27539;SDS011;15906;52.046;4.724;2023-01-29T11:44:47;42.80;;;26.63;;
27539;SDS011;15906;52.046;4.724;2023-01-29T11:49:45;41.77;;;26.40;;
27539;SDS011;15906;52.046;4.724;2023-01-29T11:52:11;46.80;;;26.20;;
27539;SDS011;15906;52.046;4.724;2023-01-29T11:54:42;39.93;;;25.20;;
27539;SDS011;15906;52.046;4.724;2023-01-29T11:57:31;40.70;;;24.77;;
27539;SDS011;15906;52.046;4.724;2023-01-29T12:00:12;40.70;;;25.37;;
27539;SDS011;15906;52.046;4.724;2023-01-29T12:03:03;39.97;;;25.47;;
27539;SDS011;15906;52.046;4.724;2023-01-29T12:06:01;40.77;;;25.43;;
27539;SDS011;15906;52.046;4.724;2023-01-29T12:08:32;37.73;;;23.70;;
27539;SDS011;15906;52.046;4.724;2023-01-29T12:11:06;43.83;;;25.00;;
27539;SDS011;15906;52.046;4.724;2023-01-29T12:13:33;39.07;;;24.97;;
27539;SDS011;15906;52.046;4.724;2023-01-29T12:16:20;42.70;;;25.63;;
27539;SDS011;15906;52.046;4.724;2023-01-29T12:19:19;43.90;;;24.87;;
27539;SDS011;15906;52.046;4.724;2023-01-29T12:22:01;39.57;;;24.93;;
27539;SDS011;15906;52.046;4.724;2023-01-29T12:27:30;43.17;;;24.30;;
27539;SDS011;15906;52.046;4.724;2023-01-29T12:30:19;41.97;;;24.50;;
27539;SDS011;15906;52.046;4.724;2023-01-29T12:38:03;37.83;;;22.63;;
27539;SDS011;15906;52.046;4.724;2023-01-29T12:40:39;38.47;;;24.17;;
27539;SDS011;15906;52.046;4.724;2023-01-29T12:43:17;34.73;;;22.43;;
27539;SDS011;15906;52.046;4.724;2023-01-29T12:45:49;39.97;;;23.47;;
27539;SDS011;15906;52.046;4.724;2023-01-29T12:48:20;38.23;;;23.83;;
27539;SDS011;15906;52.046;4.724;2023-01-29T12:50:54;38.33;;;23.30;;
27539;SDS011;15906;52.046;4.724;2023-01-29T12:53:31;38.67;;;23.70;;
27539;SDS011;15906;52.046;4.724;2023-01-29T12:56:02;38.30;;;22.90;;
27539;SDS011;15906;52.046;4.724;2023-01-29T12:58:34;36.30;;;22.27;;
27539;SDS011;15906;52.046;4.724;2023-01-29T13:01:09;36.97;;;21.77;;
27539;SDS011;15906;52.046;4.724;2023-01-29T13:04:13;38.23;;;23.07;;
27539;SDS011;15906;52.046;4.724;2023-01-29T13:06:39;39.00;;;23.20;;
27539;SDS011;15906;52.046;4.724;2023-01-29T13:09:19;36.73;;;22.20;;
27539;SDS011;15906;52.046;4.724;2023-01-29T13:14:52;37.03;;;22.27;;
27539;SDS011;15906;52.046;4.724;2023-01-29T13:17:33;35.97;;;22.00;;
27539;SDS011;15906;52.046;4.724;2023-01-29T13:20:14;37.10;;;22.13;;
27539;SDS011;15906;52.046;4.724;2023-01-29T13:22:47;34.00;;;21.57;;
27539;SDS011;15906;52.046;4.724;2023-01-29T13:25:14;34.93;;;22.70;;
27539;SDS011;15906;52.046;4.724;2023-01-29T13:27:42;36.77;;;22.53;;
27539;SDS011;15906;52.046;4.724;2023-01-29T13:30:31;35.88;;;22.08;;
27539;SDS011;15906;52.046;4.724;2023-01-29T13:32:58;36.67;;;22.20;;
27539;SDS011;15906;52.046;4.724;2023-01-29T13:35:35;32.30;;;21.37;;
27539;SDS011;15906;52.046;4.724;2023-01-29T13:38:15;38.70;;;22.87;;
27539;SDS011;15906;52.046;4.724;2023-01-29T13:40:49;39.87;;;22.03;;
27539;SDS011;15906;52.046;4.724;2023-01-29T13:43:18;38.97;;;23.13;;
27539;SDS011;15906;52.046;4.724;2023-01-29T13:45:45;35.60;;;22.10;;
27539;SDS011;15906;52.046;4.724;2023-01-29T13:48:24;36.43;;;22.53;;
27539;SDS011;15906;52.046;4.724;2023-01-29T13:50:52;35.80;;;22.13;;
27539;SDS011;15906;52.046;4.724;2023-01-29T13:53:31;33.47;;;21.17;;
27539;SDS011;15906;52.046;4.724;2023-01-29T13:59:08;31.93;;;20.33;;
27539;SDS011;15906;52.046;4.724;2023-01-29T14:02:18;33.70;;;22.10;;
27539;SDS011;15906;52.046;4.724;2023-01-29T14:04:45;33.70;;;20.67;;
27539;SDS011;15906;52.046;4.724;2023-01-29T14:10:12;34.60;;;20.53;;
27539;SDS011;15906;52.046;4.724;2023-01-29T14:12:42;35.37;;;20.70;;
27539;SDS011;15906;52.046;4.724;2023-01-29T14:15:16;31.70;;;20.63;;
27539;SDS011;15906;52.046;4.724;2023-01-29T14:18:00;36.57;;;22.07;;
27539;SDS011;15906;52.046;4.724;2023-01-29T14:20:39;38.63;;;20.93;;
27539;SDS011;15906;52.046;4.724;2023-01-29T14:29:30;33.00;;;20.80;;
27539;SDS011;15906;52.046;4.724;2023-01-29T14:34:30;32.73;;;21.27;;
27539;SDS011;15906;52.046;4.724;2023-01-29T14:39:47;35.47;;;21.73;;
27539;SDS011;15906;52.046;4.724;2023-01-29T14:42:28;31.13;;;19.73;;
27539;SDS011;15906;52.046;4.724;2023-01-29T14:48:16;30.33;;;18.80;;
27539;SDS011;15906;52.046;4.724;2023-01-29T14:51:07;31.33;;;18.97;;
27539;SDS011;15906;52.046;4.724;2023-01-29T14:56:28;29.40;;;18.00;;
27539;SDS011;15906;52.046;4.724;2023-01-29T15:01:54;27.83;;;18.03;;
27539;SDS011;15906;52.046;4.724;2023-01-29T15:04:29;32.20;;;18.63;;
27539;SDS011;15906;52.046;4.724;2023-01-29T15:07:02;32.37;;;18.97;;
27539;SDS011;15906;52.046;4.724;2023-01-29T15:09:41;32.97;;;18.60;;
27539;SDS011;15906;52.046;4.724;2023-01-29T15:15:19;37.20;;;20.27;;
27539;SDS011;15906;52.046;4.724;2023-01-29T15:23:00;40.47;;;21.37;;
27539;SDS011;15906;52.046;4.724;2023-01-29T15:25:35;33.93;;;20.50;;
27539;SDS011;15906;52.046;4.724;2023-01-29T15:28:11;40.63;;;25.07;;
27539;SDS011;15906;52.046;4.724;2023-01-29T15:30:36;33.33;;;20.63;;
27539;SDS011;15906;52.046;4.724;2023-01-29T15:33:02;36.97;;;22.93;;
27539;SDS011;15906;52.046;4.724;2023-01-29T15:35:35;47.53;;;26.93;;
27539;SDS011;15906;52.046;4.724;2023-01-29T15:38:04;38.13;;;21.20;;
27539;SDS011;15906;52.046;4.724;2023-01-29T15:40:38;40.27;;;23.60;;
27539;SDS011;15906;52.046;4.724;2023-01-29T15:43:16;41.73;;;24.00;;
27539;SDS011;15906;52.046;4.724;2023-01-29T15:45:58;38.67;;;22.20;;
27539;SDS011;15906;52.046;4.724;2023-01-29T15:48:47;37.93;;;23.80;;
27539;SDS011;15906;52.046;4.724;2023-01-29T15:51:17;35.30;;;19.87;;
27539;SDS011;15906;52.046;4.724;2023-01-29T15:53:47;35.40;;;20.27;;
27539;SDS011;15906;52.046;4.724;2023-01-29T15:56:26;31.63;;;19.83;;
27539;SDS011;15906;52.046;4.724;2023-01-29T15:59:04;36.20;;;21.13;;
27539;SDS011;15906;52.046;4.724;2023-01-29T16:01:32;33.13;;;19.67;;
27539;SDS011;15906;52.046;4.724;2023-01-29T16:03:58;39.37;;;21.37;;
27539;SDS011;15906;52.046;4.724;2023-01-29T16:06:38;40.37;;;22.70;;
27539;SDS011;15906;52.046;4.724;2023-01-29T16:09:05;32.67;;;19.43;;
27539;SDS011;15906;52.046;4.724;2023-01-29T16:11:32;40.20;;;23.33;;
27539;SDS011;15906;52.046;4.724;2023-01-29T16:13:59;36.70;;;21.37;;
27539;SDS011;15906;52.046;4.724;2023-01-29T16:16:26;36.93;;;21.90;;
27539;SDS011;15906;52.046;4.724;2023-01-29T16:18:52;38.73;;;24.20;;
27539;SDS011;15906;52.046;4.724;2023-01-29T16:21:35;43.17;;;26.17;;
27539;SDS011;15906;52.046;4.724;2023-01-29T16:26:36;38.70;;;24.53;;
27539;SDS011;15906;52.046;4.724;2023-01-29T16:29:07;39.00;;;23.60;;
27539;SDS011;15906;52.046;4.724;2023-01-29T16:31:35;41.23;;;24.37;;
27539;SDS011;15906;52.046;4.724;2023-01-29T16:34:06;40.73;;;23.40;;
27539;SDS011;15906;52.046;4.724;2023-01-29T16:36:46;43.20;;;25.63;;
27539;SDS011;15906;52.046;4.724;2023-01-29T16:39:17;41.73;;;24.83;;
27539;SDS011;15906;52.046;4.724;2023-01-29T16:41:53;40.00;;;24.37;;
27539;SDS011;15906;52.046;4.724;2023-01-29T16:44:35;36.40;;;24.33;;
27539;SDS011;15906;52.046;4.724;2023-01-29T16:47:10;40.07;;;24.67;;